ADDS TAF Data INFO
IDs: Format: Raw Decoded Include METARs

Data at: 0658 UTC 18 Feb 2018

KVLD 180523Z 1806/1906 20005KT P6SM OVC005
  FM180800 00000KT 1/2SM FG OVC003
  FM181000 00000KT 1/4SM FG VV001
  FM181500 00000KT 2SM BR OVC003
  FM181600 10003KT P6SM BKN015
  FM181700 18005KT P6SM BKN050